createdAt,value
2018-09-14T00:00:39.883Z,13.50
2018-09-14T00:03:14.348Z,12.70
2018-09-14T00:05:49.039Z,14.90
2018-09-14T00:08:27.015Z,12.33
2018-09-14T00:11:02.753Z,12.80
2018-09-14T00:13:39.174Z,13.60
2018-09-14T00:16:13.995Z,12.53
2018-09-14T00:18:50.008Z,13.90
2018-09-14T00:21:24.540Z,14.20
2018-09-14T00:24:00.728Z,14.20
2018-09-14T00:26:35.095Z,13.73
2018-09-14T00:29:11.047Z,13.17
2018-09-14T00:31:46.969Z,15.20
2018-09-14T00:34:21.298Z,14.73
2018-09-14T00:36:55.753Z,13.80
2018-09-14T00:39:30.185Z,13.33
2018-09-14T00:42:04.811Z,14.00
2018-09-14T00:44:40.851Z,14.10
2018-09-14T00:47:15.318Z,13.17
2018-09-14T00:49:49.963Z,14.57
2018-09-14T00:52:25.731Z,15.27
2018-09-14T00:55:01.729Z,15.03
2018-09-14T00:57:36.117Z,15.77
2018-09-14T01:01:40.163Z,14.13
2018-09-14T01:04:14.513Z,13.23
2018-09-14T01:06:50.420Z,14.10
2018-09-14T01:09:27.499Z,15.40
2018-09-14T01:12:03.464Z,16.10
2018-09-14T01:14:39.447Z,16.43
2018-09-14T01:17:14.211Z,16.10
2018-09-14T01:19:48.603Z,15.40
2018-09-14T01:22:24.518Z,16.33
2018-09-14T01:24:59.434Z,16.00
2018-09-14T01:30:15.196Z,16.73
2018-09-14T01:32:50.952Z,18.93
2018-09-14T01:35:30.948Z,15.70
2018-09-14T01:38:05.759Z,15.53
2018-09-14T01:40:40.183Z,17.27
2018-09-14T01:43:15.851Z,17.20
2018-09-14T01:45:50.321Z,17.33
2018-09-14T01:48:25.303Z,17.67
2018-09-14T01:51:01.731Z,19.33
2018-09-14T01:53:36.051Z,16.80
2018-09-14T01:56:10.836Z,18.03
2018-09-14T01:58:45.134Z,17.43
2018-09-14T02:01:22.956Z,19.30
2018-09-14T02:03:57.501Z,18.13
2018-09-14T02:09:13.288Z,18.30
2018-09-14T02:11:49.283Z,18.30
2018-09-14T02:14:23.598Z,17.40
2018-09-14T02:16:58.862Z,17.17
2018-09-14T02:19:33.303Z,18.93
2018-09-14T02:22:08.969Z,16.80
2018-09-14T02:24:46.880Z,17.90
2018-09-14T02:27:22.727Z,17.60
2018-09-14T02:29:57.053Z,18.30
2018-09-14T02:32:32.864Z,18.17
2018-09-14T02:42:08.042Z,18.50
2018-09-14T02:44:42.457Z,18.07
2018-09-14T02:47:16.895Z,20.50
2018-09-14T02:49:51.393Z,19.87
2018-09-14T02:52:27.284Z,17.07
2018-09-14T02:55:01.715Z,17.30
2018-09-14T02:57:37.487Z,18.43
2018-09-14T03:00:12.174Z,19.90
2018-09-14T03:02:46.700Z,16.70
2018-09-14T03:05:21.031Z,18.50
2018-09-14T03:07:56.972Z,18.47
2018-09-14T03:10:32.891Z,18.47
2018-09-14T03:13:08.757Z,19.07
2018-09-14T03:15:43.147Z,21.03
2018-09-14T03:18:17.557Z,20.17
2018-09-14T03:20:51.918Z,20.07
2018-09-14T03:23:27.841Z,19.77
2018-09-14T03:26:02.176Z,21.30
2018-09-14T03:28:36.982Z,20.17
2018-09-14T03:31:12.748Z,20.30
2018-09-14T03:33:48.488Z,21.83
2018-09-14T03:36:24.251Z,20.30
2018-09-14T03:38:59.759Z,20.63
2018-09-14T03:41:34.313Z,21.50
2018-09-14T03:44:12.251Z,22.10
2018-09-14T03:46:46.714Z,20.57
2018-09-14T03:49:21.739Z,20.83
2018-09-14T03:51:57.591Z,21.40
2018-09-14T03:54:32.254Z,20.40
2018-09-14T03:57:08.208Z,22.17
2018-09-14T03:59:42.751Z,24.30
2018-09-14T04:02:17.676Z,22.00
2018-09-14T04:04:52.315Z,23.53
2018-09-14T04:07:27.791Z,22.57
2018-09-14T04:10:03.611Z,22.43
2018-09-14T04:12:39.472Z,22.77
2018-09-14T04:15:14.612Z,22.67
2018-09-14T04:17:49.032Z,22.23
2018-09-14T04:20:23.453Z,23.73
2018-09-14T04:23:02.830Z,24.73
2018-09-14T04:25:37.164Z,22.77
2018-09-14T04:28:12.916Z,21.40
2018-09-14T04:30:49.211Z,20.53
2018-09-14T04:33:24.919Z,22.20
2018-09-14T04:36:00.587Z,24.67
2018-09-14T04:38:34.983Z,23.20
2018-09-14T04:41:09.496Z,23.00
2018-09-14T04:43:46.179Z,23.00
2018-09-14T04:46:20.875Z,20.20
2018-09-14T04:48:57.273Z,21.83
2018-09-14T04:51:33.219Z,21.70
2018-09-14T04:54:07.827Z,20.37
2018-09-14T04:56:42.288Z,22.10
2018-09-14T04:59:16.841Z,22.37
2018-09-14T05:01:51.622Z,21.30
2018-09-14T05:04:26.319Z,21.40
2018-09-14T05:07:02.227Z,20.67
2018-09-14T05:09:38.696Z,22.20
2018-09-14T05:12:14.448Z,23.57
2018-09-14T05:14:48.852Z,22.23
2018-09-14T05:17:24.122Z,21.13
2018-09-14T05:20:00.012Z,22.17
2018-09-14T05:22:36.027Z,21.90
2018-09-14T05:25:11.959Z,23.03
2018-09-14T05:27:46.308Z,23.83
2018-09-14T05:30:20.875Z,22.73
2018-09-14T05:32:56.647Z,21.40
2018-09-14T05:35:31.086Z,24.63
2018-09-14T05:38:05.846Z,22.63
2018-09-14T05:40:40.572Z,22.57
2018-09-14T05:43:15.167Z,22.77
2018-09-14T05:45:49.688Z,21.67
2018-09-14T05:48:24.430Z,22.27
2018-09-14T05:51:00.707Z,23.27
2018-09-14T05:53:35.096Z,23.03
2018-09-14T05:56:11.132Z,22.10
2018-09-14T05:58:45.573Z,22.03
2018-09-14T06:01:20.187Z,22.27
2018-09-14T06:03:55.018Z,24.87
2018-09-14T06:06:29.456Z,21.43
2018-09-14T06:09:08.359Z,23.77
2018-09-14T06:11:44.669Z,22.33
2018-09-14T06:14:20.456Z,21.40
2018-09-14T06:16:56.297Z,21.80
2018-09-14T06:19:31.171Z,21.23
2018-09-14T06:22:14.788Z,22.63
2018-09-14T06:24:50.575Z,21.27
2018-09-14T06:27:24.981Z,22.60
2018-09-14T06:30:00.548Z,22.07
2018-09-14T06:32:36.363Z,24.67
2018-09-14T06:35:10.919Z,23.20
2018-09-14T06:37:45.511Z,21.70
2018-09-14T06:40:20.332Z,20.90
2018-09-14T06:42:54.706Z,21.33
2018-09-14T06:45:29.363Z,20.37
2018-09-14T06:48:03.856Z,22.77
2018-09-14T06:50:38.373Z,20.70
2018-09-14T06:53:14.008Z,21.73
2018-09-14T06:55:48.866Z,21.07
2018-09-14T06:58:23.426Z,19.80
2018-09-14T07:00:58.092Z,19.90
2018-09-14T07:03:33.414Z,20.30
2018-09-14T07:09:00.631Z,17.83
2018-09-14T07:11:36.621Z,16.87
2018-09-14T07:14:10.998Z,17.87
2018-09-14T07:16:45.737Z,17.00
2018-09-14T07:19:21.227Z,16.97
2018-09-14T07:21:56.171Z,18.80
2018-09-14T07:24:33.402Z,15.47
2018-09-14T07:27:10.591Z,16.67
2018-09-14T07:29:45.109Z,15.60
2018-09-14T07:32:20.656Z,15.50
2018-09-14T07:34:55.047Z,15.30
2018-09-14T07:37:29.859Z,14.13
2018-09-14T07:40:04.228Z,14.73
2018-09-14T07:42:38.835Z,13.43
2018-09-14T07:45:13.028Z,14.67
2018-09-14T07:47:47.552Z,15.70
2018-09-14T07:50:21.857Z,14.03
2018-09-14T07:52:57.556Z,13.93
2018-09-14T07:55:32.052Z,15.37
2018-09-14T07:58:08.860Z,14.13
2018-09-14T08:00:53.097Z,14.47
2018-09-14T08:03:28.650Z,12.77
2018-09-14T08:06:03.108Z,14.70
2018-09-14T08:08:38.644Z,13.30
2018-09-14T08:11:15.348Z,13.50
2018-09-14T08:13:51.147Z,12.33
2018-09-14T08:16:25.524Z,11.97
2018-09-14T08:19:00.191Z,13.63
2018-09-14T08:21:34.620Z,13.93
2018-09-14T08:24:10.543Z,13.90
2018-09-14T08:26:46.182Z,13.40
2018-09-14T08:29:20.664Z,11.83
2018-09-14T08:31:56.128Z,10.63
2018-09-14T08:34:30.421Z,14.47
2018-09-14T08:37:04.771Z,13.37
2018-09-14T08:39:39.224Z,12.73
2018-09-14T08:42:13.612Z,13.60
2018-09-14T08:44:48.060Z,12.47
2018-09-14T08:47:22.657Z,13.37
2018-09-14T08:49:58.371Z,13.13
2018-09-14T08:52:33.722Z,12.80
2018-09-14T08:55:09.255Z,13.93
2018-09-14T08:57:43.690Z,12.40
2018-09-14T09:00:22.032Z,12.47
2018-09-14T09:02:56.459Z,13.17
2018-09-14T09:05:30.960Z,13.47
2018-09-14T09:08:06.491Z,13.63
2018-09-14T09:10:42.670Z,12.60
2018-09-14T09:13:18.586Z,13.33
2018-09-14T09:15:53.043Z,12.30
2018-09-14T09:18:27.536Z,13.40
2018-09-14T09:21:02.327Z,13.60
2018-09-14T09:23:38.215Z,13.63
2018-09-14T09:26:13.983Z,14.50
2018-09-14T09:28:48.428Z,12.40
2018-09-14T09:31:24.436Z,12.97
2018-09-14T09:33:58.874Z,12.70
2018-09-14T09:36:33.442Z,12.13
2018-09-14T09:39:11.866Z,12.13
2018-09-14T09:41:46.282Z,10.70
2018-09-14T09:44:20.736Z,10.20
2018-09-14T09:46:56.443Z,10.53
2018-09-14T09:49:30.900Z,10.70
2018-09-14T09:52:06.744Z,9.40
2018-09-14T09:54:41.106Z,9.63
2018-09-14T09:57:15.515Z,9.50
2018-09-14T09:59:49.756Z,11.00
2018-09-14T10:02:33.952Z,12.57
2018-09-14T10:05:13.576Z,10.13
2018-09-14T10:07:49.404Z,10.37
2018-09-14T10:10:33.555Z,9.93
2018-09-14T10:13:09.078Z,9.27
2018-09-14T10:15:43.582Z,10.70
2018-09-14T10:18:18.125Z,11.60
2018-09-14T10:20:54.057Z,12.90
2018-09-14T10:23:29.738Z,12.30
2018-09-14T10:26:05.909Z,11.03
2018-09-14T10:28:40.453Z,10.70
2018-09-14T10:31:16.820Z,12.10
2018-09-14T10:33:51.533Z,10.80
2018-09-14T10:36:29.347Z,11.63
2018-09-14T10:39:05.547Z,10.73
2018-09-14T10:41:41.223Z,11.43
2018-09-14T10:44:15.565Z,11.27
2018-09-14T10:46:50.071Z,11.20
2018-09-14T10:49:24.516Z,9.17
2018-09-14T10:52:00.274Z,10.67
2018-09-14T10:54:34.551Z,9.87
2018-09-14T10:57:09.546Z,10.83
2018-09-14T10:59:44.044Z,10.10
2018-09-14T11:02:18.639Z,10.63
2018-09-14T11:04:53.351Z,10.87
2018-09-14T11:07:30.483Z,9.30
2018-09-14T11:10:05.004Z,10.43
2018-09-14T11:12:40.882Z,10.57
2018-09-14T11:15:15.151Z,10.77
2018-09-14T11:17:50.966Z,10.00
2018-09-14T11:20:27.340Z,9.83
2018-09-14T11:23:04.612Z,10.57
2018-09-14T11:25:40.523Z,9.47
2018-09-14T11:28:15.172Z,10.60
2018-09-14T11:30:51.455Z,9.60
2018-09-14T11:33:27.292Z,9.50
2018-09-14T11:36:01.655Z,7.77
2018-09-14T11:38:36.228Z,8.10
2018-09-14T11:41:10.579Z,9.97
2018-09-14T11:43:45.296Z,9.73
2018-09-14T11:46:20.359Z,9.00
2018-09-14T11:48:55.223Z,8.80
2018-09-14T11:51:31.018Z,9.30
2018-09-14T11:54:06.780Z,10.13
2018-09-14T11:56:41.326Z,10.33
2018-09-14T11:59:15.907Z,8.73
2018-09-14T12:01:51.678Z,10.40
2018-09-14T12:05:50.743Z,9.87
2018-09-14T12:08:27.079Z,8.40
2018-09-14T12:11:02.823Z,8.50
2018-09-14T12:13:38.482Z,7.80
2018-09-14T12:16:14.539Z,9.23
2018-09-14T12:18:49.084Z,9.30
2018-09-14T12:21:23.508Z,8.97
2018-09-14T12:23:59.208Z,8.07
2018-09-14T12:26:35.088Z,9.20
2018-09-14T12:29:10.832Z,9.57
2018-09-14T12:31:46.616Z,8.63
2018-09-14T12:34:21.139Z,8.70
2018-09-14T12:36:55.423Z,8.57
2018-09-14T12:39:30.962Z,7.63
2018-09-14T12:42:05.348Z,9.10
2018-09-14T12:44:39.781Z,7.50
2018-09-14T12:47:14.092Z,6.93
2018-09-14T12:49:48.480Z,8.77
2018-09-14T12:52:23.864Z,6.90
2018-09-14T12:54:58.195Z,6.73
2018-09-14T12:57:32.774Z,7.30
2018-09-14T13:00:07.472Z,6.93
2018-09-14T13:02:43.107Z,6.63
2018-09-14T13:05:17.583Z,7.00
2018-09-14T13:07:53.123Z,6.83
2018-09-14T13:10:36.159Z,7.20
2018-09-14T13:13:11.883Z,6.63
2018-09-14T13:15:46.221Z,6.80
2018-09-14T13:18:20.725Z,6.70
2018-09-14T13:20:56.434Z,7.13
2018-09-14T13:23:32.204Z,6.80
2018-09-14T13:26:07.942Z,7.97
2018-09-14T13:28:42.227Z,7.10
2018-09-14T13:31:17.743Z,7.10
2018-09-14T13:33:52.258Z,7.67
2018-09-14T13:36:26.895Z,7.63
2018-09-14T13:39:01.211Z,7.13
2018-09-14T13:41:35.579Z,7.10
2018-09-14T13:44:10.082Z,6.37
2018-09-14T13:46:44.677Z,6.20
2018-09-14T13:49:19.175Z,7.73
2018-09-14T13:51:54.933Z,6.43
2018-09-14T13:54:31.847Z,7.50
2018-09-14T13:57:06.436Z,7.27
2018-09-14T13:59:41.128Z,6.87
2018-09-14T14:02:15.403Z,6.73
2018-09-14T14:04:49.754Z,6.27
2018-09-14T14:07:25.947Z,5.23
2018-09-14T14:10:01.808Z,6.30
2018-09-14T14:12:41.559Z,8.33
2018-09-14T14:15:16.109Z,6.30
2018-09-14T14:17:50.864Z,7.57
2018-09-14T14:20:25.643Z,7.47
2018-09-14T14:23:05.446Z,6.60
2018-09-14T14:25:41.444Z,6.40
2018-09-14T14:28:15.854Z,6.50
2018-09-14T14:30:51.781Z,6.37
2018-09-14T14:33:26.280Z,6.20
2018-09-14T14:36:01.167Z,5.70
2018-09-14T14:38:35.483Z,5.87
2018-09-14T14:41:10.150Z,5.40
2018-09-14T14:43:44.531Z,6.37
2018-09-14T14:46:20.524Z,6.23
2018-09-14T14:48:55.495Z,5.57
2018-09-14T14:51:32.134Z,6.53
2018-09-14T14:54:07.204Z,9.20
2018-09-14T14:56:42.103Z,9.77
2018-09-14T14:59:17.382Z,6.73
2018-09-14T15:01:52.251Z,6.40
2018-09-14T15:04:27.315Z,6.07
2018-09-14T15:07:05.945Z,6.03
2018-09-14T15:09:45.449Z,5.43
2018-09-14T15:12:21.983Z,5.53
2018-09-14T15:14:57.304Z,5.93
2018-09-14T15:17:31.816Z,5.83
2018-09-14T15:20:06.838Z,6.57
2018-09-14T15:22:43.178Z,5.10
2018-09-14T15:25:19.343Z,6.43
2018-09-14T15:27:54.551Z,5.47
2018-09-14T15:30:33.280Z,6.03
2018-09-14T15:33:08.396Z,5.63
2018-09-14T15:35:44.966Z,6.17
2018-09-14T15:38:19.731Z,5.67
2018-09-14T15:40:54.444Z,6.97
2018-09-14T15:43:29.486Z,4.87
2018-09-14T15:46:04.127Z,4.80
2018-09-14T15:48:40.346Z,5.83
2018-09-14T15:51:16.779Z,5.30
2018-09-14T15:53:51.703Z,5.60
2018-09-14T15:56:26.286Z,7.63
2018-09-14T15:59:00.909Z,6.00
2018-09-14T16:01:37.139Z,5.80
2018-09-14T16:04:11.934Z,5.80
2018-09-14T16:06:48.224Z,6.50
2018-09-14T16:09:23.324Z,5.80
2018-09-14T16:11:59.996Z,5.83
2018-09-14T16:14:34.822Z,6.40
2018-09-14T16:17:10.207Z,5.67
2018-09-14T16:19:44.716Z,6.40
2018-09-14T16:22:19.791Z,7.40
2018-09-14T16:24:55.924Z,6.20
2018-09-14T16:27:32.697Z,6.90
2018-09-14T16:30:07.427Z,6.90
2018-09-14T16:32:43.511Z,6.53
2018-09-14T16:35:18.082Z,7.20
2018-09-14T16:37:52.943Z,6.27
2018-09-14T16:40:28.173Z,5.33
2018-09-14T16:43:13.139Z,5.63
2018-09-14T16:45:47.946Z,6.80
2018-09-14T16:48:25.856Z,5.23
2018-09-14T16:51:09.168Z,7.00
2018-09-14T16:53:45.738Z,7.73
2018-09-14T16:56:22.093Z,5.90
2018-09-14T16:58:57.024Z,5.80
2018-09-14T17:01:31.491Z,6.03
2018-09-14T17:04:07.816Z,6.47
2018-09-14T17:06:46.172Z,6.50
2018-09-14T17:09:20.443Z,6.47
2018-09-14T17:11:56.551Z,6.70
2018-09-14T17:14:31.453Z,6.07
2018-09-14T17:17:07.949Z,6.23
2018-09-14T17:19:42.499Z,6.17
2018-09-14T17:23:42.656Z,6.70
2018-09-14T17:26:19.646Z,5.63
2018-09-14T17:28:54.652Z,5.70
2018-09-14T17:31:31.513Z,7.07
2018-09-14T17:34:06.269Z,5.90
2018-09-14T17:36:40.767Z,6.90
2018-09-14T17:39:16.534Z,4.90
2018-09-14T17:41:50.828Z,5.53
2018-09-14T17:44:26.813Z,6.27
2018-09-14T17:47:02.455Z,5.70
2018-09-14T17:49:37.095Z,6.90
2018-09-14T17:52:15.326Z,6.30
2018-09-14T17:54:49.835Z,6.73
2018-09-14T17:57:24.417Z,6.40
2018-09-14T18:00:07.129Z,6.80
2018-09-14T18:02:42.080Z,5.63
2018-09-14T18:05:16.850Z,5.60
2018-09-14T18:07:53.183Z,5.20
2018-09-14T18:10:35.804Z,5.97
2018-09-14T18:13:11.483Z,5.80
2018-09-14T18:15:46.702Z,5.77
2018-09-14T18:18:21.327Z,6.00
2018-09-14T18:20:55.754Z,6.63
2018-09-14T18:23:31.907Z,6.90
2018-09-14T18:26:07.576Z,5.80
2018-09-14T18:28:41.994Z,6.60
2018-09-14T18:31:17.730Z,6.10
2018-09-14T18:33:52.309Z,7.03
2018-09-14T18:36:26.657Z,6.13
2018-09-14T18:39:10.823Z,7.20
2018-09-14T18:41:45.339Z,6.37
2018-09-14T18:44:19.747Z,5.93
2018-09-14T18:46:54.065Z,6.20
2018-09-14T18:49:28.460Z,7.20
2018-09-14T18:52:05.267Z,6.30
2018-09-14T18:54:39.824Z,7.50
2018-09-14T18:57:14.423Z,8.57
2018-09-14T18:59:50.987Z,9.50
2018-09-14T19:02:25.532Z,8.50
2018-09-14T19:05:02.175Z,9.30
2018-09-14T19:07:38.467Z,9.90
2018-09-14T19:10:13.374Z,9.87
2018-09-14T19:12:50.166Z,8.07
2018-09-14T19:15:25.527Z,6.40
2018-09-14T19:17:59.859Z,6.90
2018-09-14T19:20:34.414Z,6.73
2018-09-14T19:23:11.352Z,7.60
2018-09-14T19:25:48.324Z,8.70
2018-09-14T19:28:22.867Z,8.83
2018-09-14T19:30:58.607Z,8.57
2018-09-14T19:33:34.318Z,8.80
2018-09-14T19:36:08.708Z,11.00
2018-09-14T19:38:43.282Z,8.73
2018-09-14T19:41:17.975Z,9.83
2018-09-14T19:43:52.700Z,8.63
2018-09-14T19:46:27.270Z,10.30
2018-09-14T19:49:01.769Z,10.63
2018-09-14T19:51:38.174Z,11.97
2018-09-14T19:54:12.492Z,11.90
2018-09-14T19:56:48.900Z,11.07
2018-09-14T19:59:23.275Z,12.87
2018-09-14T20:01:57.962Z,11.93
2018-09-14T20:04:33.136Z,13.00
2018-09-14T20:07:08.699Z,12.47
2018-09-14T20:09:43.395Z,11.80
2018-09-14T20:12:19.943Z,13.47
2018-09-14T20:14:54.508Z,11.37
2018-09-14T20:17:28.960Z,11.07
2018-09-14T20:20:06.216Z,11.80
2018-09-14T20:25:48.126Z,11.20
2018-09-14T20:28:22.586Z,11.00
2018-09-14T20:30:59.466Z,12.23
2018-09-14T20:33:34.610Z,10.87
2018-09-14T20:36:08.995Z,13.17
2018-09-14T20:38:43.355Z,14.20
2018-09-14T20:41:19.135Z,12.80
2018-09-14T20:43:53.640Z,13.10
2018-09-14T20:46:28.328Z,13.63
2018-09-14T20:49:02.818Z,12.73
2018-09-14T20:51:38.788Z,11.90
2018-09-14T20:54:14.298Z,12.50
2018-09-14T20:56:49.063Z,12.00
2018-09-14T20:59:23.555Z,13.20
2018-09-14T21:01:58.279Z,12.20
2018-09-14T21:04:32.726Z,12.63
2018-09-14T21:07:08.375Z,14.77
2018-09-14T21:09:42.973Z,13.03
2018-09-14T21:12:19.043Z,14.93
2018-09-14T21:14:53.423Z,13.90
2018-09-14T21:17:28.199Z,13.63
2018-09-14T21:20:04.107Z,13.30
2018-09-14T21:22:38.720Z,14.20
2018-09-14T21:25:14.275Z,13.57
2018-09-14T21:27:48.650Z,12.40
2018-09-14T21:30:31.595Z,13.27
2018-09-14T21:33:07.774Z,13.40
2018-09-14T21:35:42.229Z,12.43
2018-09-14T21:38:16.633Z,12.37
2018-09-14T21:40:50.983Z,12.23
2018-09-14T21:43:25.559Z,12.40
2018-09-14T21:46:00.092Z,12.27
2018-09-14T21:48:34.612Z,13.40
2018-09-14T21:51:14.553Z,13.10
2018-09-14T21:53:49.117Z,13.83
2018-09-14T21:56:23.598Z,13.70
2018-09-14T21:58:57.979Z,12.83
2018-09-14T22:01:32.295Z,12.53
2018-09-14T22:04:06.884Z,13.23
2018-09-14T22:06:46.704Z,12.60
2018-09-14T22:09:21.089Z,13.43
2018-09-14T22:11:57.521Z,13.10
2018-09-14T22:14:33.296Z,12.40
2018-09-14T22:17:07.931Z,11.00
2018-09-14T22:19:42.292Z,14.13
2018-09-14T22:22:18.208Z,11.50
2018-09-14T22:24:54.242Z,12.70
2018-09-14T22:27:28.493Z,11.70
2018-09-14T22:30:03.247Z,11.17
2018-09-14T22:32:38.951Z,11.83
2018-09-14T22:35:13.399Z,11.40
2018-09-14T22:37:47.912Z,12.90
2018-09-14T22:40:22.416Z,12.20
2018-09-14T22:42:56.850Z,12.90
2018-09-14T22:45:31.340Z,13.40
2018-09-14T22:48:11.518Z,12.20
2018-09-14T22:50:52.779Z,12.27
2018-09-14T22:53:28.400Z,14.10
2018-09-14T22:56:02.820Z,12.03
2018-09-14T22:58:37.343Z,17.07
2018-09-14T23:01:16.585Z,12.00
2018-09-14T23:03:51.344Z,12.27
2018-09-14T23:06:26.908Z,13.77
2018-09-14T23:09:02.448Z,12.47
2018-09-14T23:11:38.546Z,11.50
2018-09-14T23:14:14.872Z,13.43
2018-09-14T23:16:49.362Z,12.20
2018-09-14T23:19:24.236Z,13.60
2018-09-14T23:22:00.106Z,12.30
2018-09-14T23:24:36.179Z,12.37
2018-09-14T23:27:10.658Z,11.47
2018-09-14T23:29:45.190Z,11.80
2018-09-14T23:32:21.867Z,11.70
2018-09-14T23:34:57.370Z,10.47
2018-09-14T23:37:31.875Z,12.00
2018-09-14T23:40:06.427Z,13.47
2018-09-14T23:42:41.088Z,12.83
2018-09-14T23:45:15.522Z,11.43
2018-09-14T23:47:51.457Z,12.13
2018-09-14T23:50:25.911Z,11.60
2018-09-14T23:53:01.945Z,12.13
2018-09-14T23:55:36.295Z,12.27
2018-09-14T23:58:10.868Z,11.50
